• Join FlightAware (Why Join?)
  • Login
  • US Flag 
07:24AM EDT


 

Airport Tracker/Info


-or-


 

Live Flight TrackerFlight Track Log ✈ DAL268 ✈ 22-Sep-2013 ✈ KJFK - LLBG / TLV

Flight Track Log - Related Links

Times and Time Zones

All times are in EDT time to prevent confusion due to time zone crossing. See the DAL268 flight status page for this flight to view local times or setup timezone preferences in your user account.

Time Position Orientation Groundspeed Altitude Reporting Facility
EDT Latitude Longitude Course Direction KTS MPH feet Rate Location/Type
10:02PM 40.6340 -73.7860 323° Northwest 130 150  Level FlightAware
10:02PM 40.6430 -73.8050 302° West 170 196 400 1,260 Climbing FlightAware
10:02PM 40.6460 -73.8150 292° West 175 201 700 1,560 Climbing FlightAware
10:02PM 40.6470 -73.8180 294° West 179 206 800 1,680 Climbing FlightAware
10:03PM 40.6370 -73.8440 243° Southwest 204 235 1,500 1,320 Climbing FlightAware
10:03PM 40.6230 -73.8640 227° Southwest 234 269 1,800 1,200 Climbing FlightAware
10:03PM 40.6070 -73.8850 225° Southwest 257 296 2,300 1,500 Climbing FlightAware
10:03PM 40.5980 -73.8910 207° Southwest 266 306 2,500 1,080 Climbing FlightAware
10:04PM 40.5880 -73.8940 193° South 276 318 2,600 780 Climbing FlightAware
10:04PM 40.5780 -73.8950 184° South 287 330 2,700 840 Climbing FlightAware
10:04PM 40.5600 -73.8890 166° South 297 342 3,000 1,200 Climbing FlightAware
10:04PM 40.5510 -73.8820 149° Southeast 301 346 3,200 2,100 Climbing FlightAware
10:04PM 40.5420 -73.8700 135° Southeast 301 346 3,500 1,860 Climbing FlightAware
10:04PM 40.5370 -73.8630 133° Southeast 300 345 3,700 2,760 Climbing FlightAware
10:04PM 40.5320 -73.8460 111° Southeast 298 343 4,200 3,420 Climbing FlightAware
10:05PM 40.5310 -73.8340 96° East 295 339 4,500 1,920 Climbing FlightAware
10:05PM 40.5370 -73.8020 76° East 285 328 5,000 1,800 Climbing FlightAware
10:05PM 40.5450 -73.7880 53° Northeast 292 336 5,400 2,400 Climbing FlightAware
10:05PM 40.5650 -73.7660 40° Northeast 292 336 6,200 2,520 Climbing FlightAware
10:06PM 40.5810 -73.7480 41° Northeast 296 341 6,900 2,580 Climbing FlightAware
10:06PM 40.6110 -73.7170 38° Northeast 301 346 8,000 2,400 Climbing FlightAware
10:06PM 40.6370 -73.6870 41° Northeast 311 358 8,900 2,100 Climbing FlightAware
10:07PM 40.6500 -73.6730 39° Northeast 313 360 9,300 2,040 Climbing FlightAware
10:07PM 40.6730 -73.6470 41° Northeast 321 369 10,000 1,500 Climbing FlightAware
10:08PM 40.7160 -73.5990 40° Northeast 348 400 10,700 1,860 Climbing FlightAware
10:08PM 40.7620 -73.5510 38° Northeast 344 396 12,300 2,520 Climbing FlightAware
10:08PM 40.7780 -73.5430 21° North 334 384 12,700 2,100 Climbing FlightAware
10:09PM 40.7900 -73.5410 North 328 377 13,000 1,740 Climbing FlightAware
10:09PM 40.8320 -73.5470 354° North 328 377 13,800 1,920 Climbing FlightAware
10:10PM 40.8810 -73.5560 352° North 333 383 14,900 1,920 Climbing FlightAware
10:10PM 40.9370 -73.5680 351° North 338 389 16,000 1,680 Climbing FlightAware
10:11PM 40.9970 -73.5600 North 355 409 17,000 1,260 Climbing FlightAware
10:11PM 41.0170 -73.5450 30° Northeast 360 414 17,100 120 Climbing FlightAware
10:12PM 41.0600 -73.4970 40° Northeast 400 460 17,100 600 Level FlightAware
10:12PM 41.1140 -73.4370 40° Northeast 416 479 17,800 1,320 Climbing FlightAware
10:13PM 41.1720 -73.3720 40° Northeast 426 490 18,800 1,500 Climbing FlightAware
10:13PM 41.2170 -73.3220 40° Northeast 433 498 19,600 1,560 Climbing FlightAware
10:14PM 41.2790 -73.2530 40° Northeast 441 507 20,600 1,440 Climbing FlightAware
10:15PM 41.3340 -73.1920 40° Northeast 449 517 21,400 1,320 Climbing FlightAware
10:15PM 41.3900 -73.1440 33° Northeast 452 520 22,100 1,260 Climbing FlightAware
10:16PM 41.4540 -73.0950 30° Northeast 456 525 22,900 1,320 Climbing FlightAware
10:16PM 41.5210 -73.0440 30° Northeast 462 532 23,800 1,140 Climbing FlightAware
10:17PM 41.5910 -72.9900 30° Northeast 476 548 24,300 780 Climbing FlightAware
10:17PM 41.6580 -72.9370 31° Northeast 487 560 24,700 600 Climbing FlightAware
10:18PM 41.7310 -72.8800 30° Northeast 504 580 25,000 420 Climbing FlightAware
10:19PM 41.7970 -72.8280 30° Northeast 520 598 25,200 480 Climbing FlightAware
10:19PM 41.8700 -72.7700 31° Northeast 531 611 25,600 720 Climbing FlightAware
10:20PM 41.9500 -72.7080 30° Northeast 540 621 26,100 780 Climbing FlightAware
10:20PM 42.0280 -72.6460 31° Northeast 547 629 26,600 780 Climbing FlightAware
10:21PM 42.0960 -72.5920 31° Northeast 554 638 27,000 960 Climbing FlightAware
10:22PM 42.1770 -72.5280 30° Northeast 554 638 27,700 1,140 Climbing FlightAware
10:22PM 42.2550 -72.4650 31° Northeast 554 638 28,400 1,080 Climbing FlightAware
10:23PM 42.3350 -72.4010 31° Northeast 557 641 29,000 960 Climbing FlightAware
10:23PM 42.4190 -72.3330 31° Northeast 558 642 29,600 900 Climbing FlightAware
10:24PM 42.4880 -72.2780 30° Northeast 557 641 30,100 1,020 Climbing FlightAware
10:24PM 42.5700 -72.2120 31° Northeast 557 641 30,800 780 Climbing FlightAware
10:25PM 42.6420 -72.1550 30° Northeast 558 642 31,000 120 Climbing FlightAware
10:26PM 42.7240 -72.0880 31° Northeast 554 638 31,000  Level FlightAware
10:26PM 42.8050 -72.0220 31° Northeast 554 638 31,000  Level FlightAware
10:27PM 42.8680 -71.9700 31° Northeast 554 638 31,000  Level FlightAware
10:27PM 42.9540 -71.9000 31° Northeast 553 636 31,000  Level FlightAware
10:28PM 43.0340 -71.8350 31° Northeast 554 638 31,000  Level FlightAware
10:29PM 43.1050 -71.7750 32° Northeast 555 639 31,000  Level FlightAware
10:29PM 43.1880 -71.7070 31° Northeast 559 643 31,000  Level FlightAware
10:30PM 43.2640 -71.6450 31° Northeast 564 649 31,000  Level FlightAware
10:30PM 43.3360 -71.5830 32° Northeast 567 652 31,000  Level FlightAware
10:31PM 43.4180 -71.5160 31° Northeast 569 655 31,000  Level FlightAware
10:31PM 43.4980 -71.4480 32° Northeast 569 655 31,000  Level FlightAware
10:32PM 43.5800 -71.3800 31° Northeast 568 654 31,000  Level FlightAware
10:33PM 43.6570 -71.3160 31° Northeast 567 652 31,000  Level FlightAware
10:33PM 43.7350 -71.2500 31° Northeast 565 650 31,000  Level FlightAware
10:34PM 43.8130 -71.1840 31° Northeast 564 649 31,000  Level FlightAware
10:34PM 43.8900 -71.1170 32° Northeast 565 650 31,000  Level FlightAware
10:35PM 43.9680 -71.0510 31° Northeast 564 649 31,000  Level FlightAware
10:36PM 44.0500 -70.9830 31° Northeast 568 654 31,000  Level FlightAware
10:36PM 44.1230 -70.9190 32° Northeast 571 657 31,000  Level FlightAware
10:37PM 44.2010 -70.8510 32° Northeast 572 658 31,000  Level FlightAware
10:37PM 44.2830 -70.7810 31° Northeast 574 661 31,000  Level FlightAware
10:38PM 44.3570 -70.7170 32° Northeast 574 661 31,000  Level FlightAware
10:38PM 44.4400 -70.6460 31° Northeast 575 662 31,000  Level FlightAware
10:39PM 44.5240 -70.5730 32° Northeast 580 667 31,000  Level FlightAware
10:40PM 44.6150 -70.4930 32° Northeast 582 670 31,000  Level FlightAware
10:40PM 44.6920 -70.4250 32° Northeast 584 672 31,000  Level FlightAware
10:41PM 44.7720 -70.3540 32° Northeast 585 673 31,000  Level FlightAware
10:42PM 44.8720 -70.2670 32° Northeast 585 673 31,000  Level FlightAware
10:42PM 44.9490 -70.1970 33° Northeast 585 673 31,000  Level FlightAware
10:43PM 45.0250 -70.1300 32° Northeast 588 677 31,000  Level FlightAware
10:43PM 45.1160 -70.0480 32° Northeast 587 676 31,000  Level FlightAware
10:44PM 45.1850 -69.9860 32° Northeast 589 678 31,000  Level FlightAware
10:44PM 45.2660 -69.9140 32° Northeast 591 680 31,000  Level FlightAware
10:45PM 45.3550 -69.8330 33° Northeast 591 680 31,000  Level FlightAware
10:46PM 45.4380 -69.7580 32° Northeast 593 682 31,000  Level FlightAware
10:46PM 45.5170 -69.6860 33° Northeast 593 682 31,000  Level FlightAware
10:47PM 45.6000 -69.6110 32° Northeast 593 682 31,000  Level FlightAware
10:47PM 45.6810 -69.5370 33° Northeast 593 682 31,000  Level FlightAware
10:48PM 45.7500 -69.4740 32° Northeast 591 680 31,000  Level FlightAware
10:49PM 45.8420 -69.3890 33° Northeast 590 679 31,000  Level FlightAware
10:49PM 45.9210 -69.3150 33° Northeast 589 678 31,000  Level FlightAware
10:50PM 45.9900 -69.2520 32° Northeast 588 677 31,000  Level FlightAware
10:50PM 46.0770 -69.1710 33° Northeast 587 676 31,000  Level FlightAware
10:51PM 46.1580 -69.0950 33° Northeast 588 677 31,000  Level FlightAware
10:52PM 46.2400 -69.0180 33° Northeast 588 677 31,000  Level FlightAware
10:52PM 46.3090 -68.9530 33° Northeast 588 677 31,000  Level FlightAware
10:53PM 46.3980 -68.8700 33° Northeast 588 677 31,000  Level FlightAware
10:53PM 46.4800 -68.7920 33° Northeast 590 679 31,000  Level FlightAware
10:54PM 46.5600 -68.7160 33° Northeast 592 681 31,000  Level FlightAware
10:55PM 46.6430 -68.6380 33° Northeast 591 680 31,000  Level FlightAware
10:55PM 46.7260 -68.5570 34° Northeast 590 679 31,000  Level FlightAware
10:56PM 46.8170 -68.4690 33° Northeast 590 679 31,000  Level FlightAware
10:57PM 46.9340 -68.3570 33° Northeast 590 679 31,000  Level FlightAware
10:58PM 47.0790 -68.2160 33° Northeast 591 680 31,000  Level FlightAware
10:58PM 47.1770 -68.1200 34° Northeast 591 680 31,000  Level FlightAware
10:59PM 47.2410 -68.0570 34° Northeast 590 679 31,000  Level FlightAware
11:00PM 47.3260 -67.9730 34° Northeast 588 677 31,000  Level FlightAware
11:00PM 47.4150 -67.8860 33° Northeast 587 676 31,000  Level FlightAware
11:01PM 47.4980 -67.8050 33° Northeast 586 674 31,000  Level FlightAware
11:02PM 47.6210 -67.7130 27° Northeast 586 674 31,000  Level FlightAware
11:02PM 47.7080 -67.6710 18° North 587 676 31,000  Level FlightAware
11:03PM 47.8070 -67.6170 20° North 585 673 31,000  Level FlightAware
11:03PM 47.8870 -67.5730 20° North 585 673 31,000  Level FlightAware
11:04PM 47.9650 -67.5310 20° North 585 673 31,000  Level FlightAware
11:04PM 47.8070 -67.6170 200° South 31,000  Level FlightAware
11:05PM 48.1167 -67.4333 200° South 580 667 31,000  Level Moncton Center
11:06PM 48.2833 -67.3333 22° Northeast 580 667 31,000  Level Moncton Center
11:07PM 48.4167 -67.2667 18° North 580 667 31,000  Level Moncton Center
11:08PM 48.5833 -67.1833 18° North 580 667 31,000  Level Moncton Center
11:09PM 48.7167 -67.0833 26° Northeast 580 667 31,000  Level Moncton Center
11:10PM 48.8833 -67.0000 18° North 580 667 31,000  Level Moncton Center
11:11PM 49.0333 -66.9333 16° North 580 667 31,000  Level Moncton Center
11:12PM 49.1833 -66.8333 24° Northeast 580 667 31,000  Level Moncton Center
11:13PM 49.3333 -66.7333 23° Northeast 570 656 31,000  Level Moncton Center
11:14PM 49.4667 -66.6667 18° North 570 656 31,000  Level Moncton Center
11:15PM 49.6167 -66.5667 23° Northeast 570 656 31,000  Level Moncton Center
11:16PM 49.7667 -66.4667 23° Northeast 570 656 31,000  Level Moncton Center
11:17PM 49.9333 -66.4000 14° North 570 656 31,000  Level Moncton Center
11:18PM 50.0500 -66.3333 20° North 580 667 31,000  Level Gander Center
11:19PM 50.2000 -66.2167 26° Northeast 580 667 31,000  Level Gander Center
11:20PM 50.3333 -66.1333 22° Northeast 580 667 31,000  Level Gander Center
11:21PM 50.4833 -66.0333 23° Northeast 570 656 31,000  Level Gander Center
11:22PM 50.6333 -65.9500 19° North 570 656 31,000  Level Gander Center
11:23PM 50.7833 -65.8667 19° North 570 656 31,000  Level Gander Center
11:24PM 50.9333 -65.7667 23° Northeast 570 656 31,000  Level Gander Center
11:25PM 51.0833 -65.6833 19° North 570 656 31,000  Level Gander Center
11:26PM 51.2333 -65.5833 23° Northeast 570 656 31,000  Level Gander Center
11:27PM 51.3833 -65.4833 23° Northeast 570 656 31,000  Level Gander Center
11:28PM 51.5167 -65.4000 21° North 570 656 31,000  Level Gander Center
11:29PM 51.6667 -65.2667 29° Northeast 570 656 31,000  Level Gander Center
11:30PM 51.8333 -65.2000 14° North 570 656 31,000  Level Gander Center
11:31PM 51.9667 -65.1167 21° North 580 667 31,000  Level Gander Center
11:32PM 52.1167 -64.9833 29° Northeast 580 667 31,000  Level Gander Center
11:33PM 52.2500 -64.8667 28° Northeast 580 667 31,000  Level Gander Center
11:34PM 52.4000 -64.7333 28° Northeast 580 667 31,000  Level Gander Center
11:35PM 52.5333 -64.6167 28° Northeast 580 667 31,000  Level Gander Center
11:36PM 52.6667 -64.4500 37° Northeast 570 656 31,000  Level Gander Center
11:37PM 52.8000 -64.3333 28° Northeast 580 667 31,000  Level Gander Center
11:38PM 52.9500 -64.1667 34° Northeast 580 667 31,000  Level Gander Center
11:39PM 53.0833 -64.0333 31° Northeast 580 667 31,000  Level Gander Center
11:40PM 53.2167 -63.9000 31° Northeast 580 667 31,000  Level Gander Center
11:41PM 53.3500 -63.7500 34° Northeast 580 667 31,000  Level Gander Center
11:42PM 53.4833 -63.6167 31° Northeast 580 667 31,000  Level Gander Center
11:43PM 53.6333 -63.4500 33° Northeast 580 667 31,000  Level Gander Center
11:44PM 53.7667 -63.3167 31° Northeast 580 667 31,000  Level Gander Center
11:45PM 53.9000 -63.1500 36° Northeast 580 667 31,000  Level Gander Center
11:46PM 54.0333 -63.0167 30° Northeast 580 667 31,000  Level Gander Center
11:47PM 54.1667 -62.8500 36° Northeast 580 667 31,000  Level Gander Center
11:48PM 54.3000 -62.7167 30° Northeast 580 667 31,000  Level Gander Center
11:49PM 54.4500 -62.5833 27° Northeast 580 667 31,000  Level Gander Center
11:50PM 54.5833 -62.4000 39° Northeast 580 667 31,000  Level Gander Center
11:51PM 54.7167 -62.2667 30° Northeast 580 667 31,000  Level Gander Center
11:52PM 54.8500 -62.1000 36° Northeast 580 667 31,000  Level Gander Center
11:53PM 54.9833 -61.9500 33° Northeast 580 667 31,000  Level Gander Center
11:54PM 55.1000 -61.7833 39° Northeast 580 667 31,000  Level Gander Center
11:55PM 55.2500 -61.6333 30° Northeast 580 667 31,000  Level Gander Center
11:56PM 55.3667 -61.4833 36° Northeast 580 667 31,000  Level Gander Center
11:57PM 55.5167 -61.3167 32° Northeast 580 667 31,000  Level Gander Center
11:58PM 55.6333 -61.1667 36° Northeast 580 667 31,000  Level Gander Center
11:59PM 55.7833 -60.9833 34° Northeast 580 667 31,000  Level Gander Center
12:00AM 55.9000 -60.8333 36° Northeast 580 667 31,000  Level Gander Center
12:01AM 56.0333 -60.6500 38° Northeast 580 667 31,000  Level Gander Center
12:02AM 56.1833 -60.5000 29° Northeast 580 667 31,000  Level Gander Center
12:03AM 56.3000 -60.3167 41° Northeast 580 667 31,000  Level Gander Center
12:04AM 56.4500 -60.1667 29° Northeast 580 667 31,000  Level Gander Center
12:05AM 56.5667 -59.9833 41° Northeast 590 679 31,000  Level Gander Center
12:06AM 56.7167 -59.8167 31° Northeast 590 679 31,000  Level Gander Center
12:07AM 56.8500 -59.6333 37° Northeast 590 679 31,000  Level Gander Center
12:08AM 56.9500 -59.4833 39° Northeast 580 667 31,000  Level Gander Center
12:09AM 57.0833 -59.2833 39° Northeast 580 667 31,000  Level Gander Center
12:10AM 57.2167 -59.1333 31° Northeast 580 667 31,000  Level Gander Center
12:11AM 57.3333 -58.8667 51° Northeast 580 667 31,000  Level Gander Center
12:12AM 57.4333 -58.6833 45° Northeast 580 667 31,000  Level Gander Center
12:13AM 57.5333 -58.4500 51° Northeast 580 667 31,000  Level Gander Center
12:14AM 57.6500 -58.2333 45° Northeast 580 667 31,000  Level Gander Center
12:15AM 57.7667 -58.0000 47° Northeast 590 679 31,000  Level Gander Center
12:16AM 57.8667 -57.7667 51° Northeast 580 667 31,000  Level Gander Center
12:17AM 57.9667 -57.5333 51° Northeast 580 667 31,000  Level Gander Center
12:18AM 58.0833 -57.3167 44° Northeast 580 667 31,000  Level Gander Center
12:19AM 58.1833 -57.0833 51° Northeast 580 667 31,000  Level Gander Center
12:20AM 58.2833 -56.8500 51° Northeast 580 667 31,000  Level Gander Center
12:21AM 58.3833 -56.6000 53° Northeast 580 667 31,000  Level Gander Center
12:22AM 58.5000 -56.3667 46° Northeast 580 667 31,000  Level Gander Center
12:23AM 58.6000 -56.1333 51° Northeast 580 667 31,000  Level Gander Center
12:24AM 58.7167 -55.8833 48° Northeast 590 679 31,000  Level Gander Center
12:25AM 58.8167 -55.6500 50° Northeast 590 679 31,000  Level Gander Center
12:26AM 58.9000 -55.4000 57° Northeast 580 667 31,000  Level Gander Center
12:27AM 59.0167 -55.1667 46° Northeast 580 667 31,000  Level Gander Center
12:28AM 59.1000 -54.9167 57° Northeast 570 656 31,000  Level Gander Center
12:29AM 59.1833 -54.6833 55° Northeast 570 656 31,000  Level Gander Center
12:30AM 59.3167 -54.4167 46° Northeast 570 656 31,000  Level Gander Center
12:32AM 59.4813 -54.0235 50° Northeast  Level FlightAware Approximate
12:39AM 60.1396 -52.3795 53° Northeast  Level FlightAware Approximate
12:40AM 60.2310 -52.1379 53° Northeast  Level FlightAware Approximate
12:41AM 60.3220 -51.8949 53° Northeast  Level FlightAware Approximate
12:42AM 60.4126 -51.6506 53° Northeast  Level FlightAware Approximate
12:43AM 60.5027 -51.4050 53° Northeast  Level FlightAware Approximate
12:44AM 60.5923 -51.1579 53° Northeast  Level FlightAware Approximate
12:45AM 60.6815 -50.9095 54° Northeast  Level FlightAware Approximate
12:46AM 60.7702 -50.6598 54° Northeast  Level FlightAware Approximate
12:47AM 60.8585 -50.4086 54° Northeast  Level FlightAware Approximate
12:48AM 60.9462 -50.1561 54° Northeast  Level FlightAware Approximate
12:49AM 61.0255 -49.8983 63° Northeast  Level FlightAware Approximate
12:50AM 61.0934 -49.6257 63° Northeast  Level FlightAware Approximate
12:51AM 61.1605 -49.3528 63° Northeast  Level FlightAware Approximate
12:52AM 61.2271 -49.0788 63° Northeast  Level FlightAware Approximate
12:53AM 61.2931 -48.8036 63° Northeast  Level FlightAware Approximate
12:54AM 61.3586 -48.5272 64° Northeast  Level FlightAware Approximate
12:55AM 61.4234 -48.2497 64° Northeast  Level FlightAware Approximate
12:56AM 61.4878 -47.9711 64° Northeast  Level FlightAware Approximate
12:57AM 61.5515 -47.6913 64° Northeast  Level FlightAware Approximate
12:58AM 61.6147 -47.4103 65° Northeast  Level FlightAware Approximate
12:59AM 61.6773 -47.1282 65° Northeast  Level FlightAware Approximate
01:00AM 61.7393 -46.8450 65° Northeast  Level FlightAware Approximate
01:01AM 61.8007 -46.5606 65° Northeast  Level FlightAware Approximate
01:02AM 61.8615 -46.2751 66° East  Level FlightAware Approximate
01:03AM 61.9218 -45.9885 66° East  Level FlightAware Approximate
01:04AM 61.9814 -45.7007 66° East  Level FlightAware Approximate
01:05AM 62.0405 -45.4119 66° East  Level FlightAware Approximate
01:06AM 62.0989 -45.1219 67° East  Level FlightAware Approximate
01:07AM 62.1567 -44.8308 67° East  Level FlightAware Approximate
01:08AM 62.2139 -44.5385 67° East  Level FlightAware Approximate
01:09AM 62.2705 -44.2452 67° East  Level FlightAware Approximate
01:10AM 62.3265 -43.9508 68° East  Level FlightAware Approximate
01:11AM 62.3819 -43.6553 68° East  Level FlightAware Approximate
01:12AM 62.4366 -43.3587 68° East  Level FlightAware Approximate
01:13AM 62.4907 -43.0610 68° East  Level FlightAware Approximate
01:14AM 62.5441 -42.7622 69° East  Level FlightAware Approximate
01:15AM 62.5970 -42.4624 69° East  Level FlightAware Approximate
01:16AM 62.6491 -42.1615 69° East  Level FlightAware Approximate
01:17AM 62.7006 -41.8596 69° East  Level FlightAware Approximate
01:18AM 62.7515 -41.5566 70° East  Level FlightAware Approximate
01:19AM 62.8017 -41.2525 70° East  Level FlightAware Approximate
01:20AM 62.8513 -40.9475 70° East  Level FlightAware Approximate
01:21AM 62.9002 -40.6414 71° East  Level FlightAware Approximate
01:22AM 62.9484 -40.3343 71° East  Level FlightAware Approximate
01:23AM 62.9960 -40.0262 71° East  Level FlightAware Approximate
01:24AM 63.0374 -39.7122 74° East  Level FlightAware Approximate
01:25AM 63.0776 -39.3975 74° East  Level FlightAware Approximate
01:26AM 63.1170 -39.0819 74° East  Level FlightAware Approximate
01:27AM 63.1558 -38.7655 75° East  Level FlightAware Approximate
01:28AM 63.1938 -38.4483 75° East  Level FlightAware Approximate
01:29AM 63.2311 -38.1303 75° East  Level FlightAware Approximate
01:30AM 63.2692 -37.8122 74° East  Level FlightAware Approximate
01:31AM 63.3081 -37.4943 75° East  Level FlightAware Approximate
01:32AM 63.3464 -37.1755 75° East  Level FlightAware Approximate
01:33AM 63.3839 -36.8559 75° East  Level FlightAware Approximate
01:34AM 63.4206 -36.5354 75° East  Level FlightAware Approximate
01:35AM 63.4567 -36.2141 76° East  Level FlightAware Approximate
01:36AM 63.4921 -35.8920 76° East  Level FlightAware Approximate
01:37AM 63.5267 -35.5691 76° East  Level FlightAware Approximate
01:38AM 63.5606 -35.2455 77° East  Level FlightAware Approximate
01:39AM 63.5937 -34.9210 77° East  Level FlightAware Approximate
01:40AM 63.6262 -34.5959 77° East  Level FlightAware Approximate
01:41AM 63.6578 -34.2700 77° East  Level FlightAware Approximate
01:42AM 63.6888 -33.9434 78° East  Level FlightAware Approximate
01:43AM 63.7190 -33.6160 78° East  Level FlightAware Approximate
01:44AM 63.7485 -33.2880 78° East  Level FlightAware Approximate
01:45AM 63.7772 -32.9593 79° East  Level FlightAware Approximate
01:46AM 63.8052 -32.6299 79° East  Level FlightAware Approximate
01:47AM 63.8324 -32.2999 79° East  Level FlightAware Approximate
01:48AM 63.8589 -31.9693 80° East  Level FlightAware Approximate
01:49AM 63.8846 -31.6381 80° East  Level FlightAware Approximate
01:49AM 63.9200 -31.1970 80° East 519 597 31,000  Level FlightAware
01:50AM 63.9095 -31.3062 80° East  Level FlightAware Approximate
01:50AM 63.9330 -31.0140 81° East 520 598 31,000  Level FlightAware
01:50AM 63.9460 -30.8300 81° East 520 598 31,000  Level FlightAware
01:51AM 63.9580 -30.6470 81° East 519 597 31,000  Level FlightAware
01:52AM 63.9720 -30.4430 81° East 518 596 31,000  Level FlightAware
01:52AM 63.9830 -30.2650 82° East 518 596 31,000  Level FlightAware
01:53AM 63.9960 -30.0710 81° East 518 596 31,000  Level FlightAware
01:53AM 64.0030 -29.9140 84° East 518 596 31,000  Level FlightAware
01:54AM 64.0110 -29.6860 85° East 518 596 31,000  Level FlightAware
01:54AM 64.0160 -29.5170 86° East 519 597 31,000  Level FlightAware
01:55AM 64.0220 -29.3150 86° East 520 598 31,000  Level FlightAware
01:56AM 64.0270 -29.1460 86° East 520 598 31,000  Level FlightAware
01:56AM 64.0330 -28.9220 86° East 520 598 31,000  Level FlightAware
01:57AM 64.0380 -28.7470 86° East 522 601 31,000  Level FlightAware
01:57AM 64.0430 -28.5370 87° East 529 609 31,000  Level FlightAware
01:58AM 64.0470 -28.3630 87° East 534 615 31,000  Level FlightAware
01:59AM 64.0520 -28.1550 87° East 536 617 31,000  Level FlightAware
01:59AM 64.0570 -27.9400 87° East 536 617 31,000  Level FlightAware
02:00AM 64.0600 -27.7490 88° East 535 616 31,000 480 Level FlightAware
02:00AM 64.0640 -27.5680 87° East 539 620 31,600 1,020 Climbing FlightAware
02:01AM 64.0670 -27.3620 88° East 544 626 32,200 1,080 Climbing FlightAware
02:01AM 64.0700 -27.2010 87° East 546 628 32,800 1,080 Climbing FlightAware
02:02AM 64.0730 -26.9830 88° East 549 632 33,400 900 Climbing FlightAware
02:02AM 64.0750 -26.7960 89° East 554 638 33,900 900 Climbing FlightAware
02:03AM 64.0780 -26.5740 88° East 557 641 34,500 840 Climbing FlightAware
02:04AM 64.0800 -26.3630 89° East 557 641 35,000 420 Climbing FlightAware
02:04AM 64.0820 -26.1690 89° East 556 640 35,000  Level FlightAware
02:05AM 64.0830 -25.9650 89° East 554 638 35,000  Level FlightAware
02:05AM 64.0840 -25.7550 89° East 553 636 35,000  Level FlightAware
02:06AM 64.0850 -25.5510 89° East 553 636 35,000  Level FlightAware
02:07AM 64.0860 -25.3580 89° East 554 638 35,000  Level FlightAware
02:07AM 64.0860 -25.1480 90° East 554 638 35,000  Level FlightAware
02:08AM 64.0860 -24.9380 90° East 555 639 35,000  Level FlightAware
02:08AM 64.0860 -24.7500 90° East 556 640 35,000  Level FlightAware
02:09AM 64.0850 -24.5400 91° East 556 640 35,000  Level FlightAware
02:10AM 64.0850 -24.3290 90° East 557 641 35,000  Level FlightAware
02:10AM 64.0840 -24.1170 91° East 557 641 35,000  Level FlightAware
02:11AM 64.0830 -23.9700 91° East 557 641 35,000  Level FlightAware
02:11AM 64.0800 -23.6710 91° East 557 641 35,000  Level FlightAware
02:12AM 64.0780 -23.4540 91° East 557 641 35,000  Level FlightAware
02:13AM 64.0760 -23.2720 91° East 556 640 35,000  Level FlightAware
02:13AM 64.0730 -23.0500 92° East 555 639 35,000  Level FlightAware
02:14AM 64.0700 -22.8450 92° East 554 638 35,000  Level FlightAware
02:14AM 64.0670 -22.6530 92° East 554 638 35,000  Level FlightAware
02:15AM 64.0640 -22.4490 92° East 554 638 35,000  Level FlightAware
02:15AM 64.0600 -22.2330 92° East 553 636 35,000  Level FlightAware
02:16AM 64.0560 -22.0240 92° East 553 636 35,000  Level FlightAware
02:17AM 64.0520 -21.8440 93° East 552 635 35,000  Level FlightAware
02:17AM 64.0470 -21.6290 93° East 552 635 35,000  Level FlightAware
02:18AM 64.0420 -21.4370 93° East 553 636 35,000  Level FlightAware
02:18AM 64.0370 -21.2220 93° East 553 636 35,000  Level FlightAware
02:19AM 64.0320 -21.0180 93° East 554 638 35,000  Level FlightAware
02:20AM 64.0260 -20.8030 94° East 554 638 35,000  Level FlightAware
02:20AM 64.0200 -20.6170 94° East 554 638 35,000  Level FlightAware
02:21AM 64.0140 -20.4080 94° East 555 639 35,000  Level FlightAware
02:21AM 64.0070 -20.1980 94° East 555 639 35,000  Level FlightAware
02:22AM 64.0000 -20.0120 95° East 555 639 35,000  Level FlightAware
02:22AM 63.9880 -19.8040 97° East 555 639 35,000  Level FlightAware
02:23AM 63.9750 -19.6080 99° East 555 639 35,000  Level FlightAware
02:24AM 63.9610 -19.4000 99° East 556 640 35,000  Level FlightAware
02:24AM 63.9470 -19.1920 99° East 557 641 35,000  Level FlightAware
02:25AM 63.9330 -18.9850 99° East 556 640 35,000  Level FlightAware
02:25AM 63.9190 -18.7830 99° East 556 640 35,000  Level FlightAware
02:26AM 63.9050 -18.5990 100° East 556 640 35,000  Level FlightAware
02:27AM 63.8890 -18.3760 99° East 556 640 35,000  Level FlightAware
02:27AM 63.8760 -18.1980 99° East 555 639 35,000  Level FlightAware
02:28AM 63.8600 -17.9920 100° East 554 638 35,000  Level FlightAware
02:28AM 63.8440 -17.7870 100° East 552 635 35,000  Level FlightAware
02:29AM 63.8280 -17.5830 100° East 551 634 35,000  Level FlightAware
02:29AM 63.8130 -17.4010 100° East 550 633 35,000  Level FlightAware
02:30AM 63.7960 -17.1980 101° East 550 633 35,000  Level FlightAware
02:31AM 63.7790 -16.9950 101° East 548 631 35,000  Level FlightAware
02:31AM 63.7620 -16.7930 101° East 547 629 35,000  Level FlightAware
02:32AM 63.7470 -16.6140 101° East 547 629 35,000  Level FlightAware
02:32AM 63.7290 -16.4130 101° East 547 629 35,000  Level FlightAware
02:33AM 63.7110 -16.2110 101° East 546 628 35,000  Level FlightAware
02:34AM 63.6920 -16.0060 102° East 547 629 35,000  Level FlightAware
02:34AM 63.6750 -15.8160 101° East 546 628 35,000  Level FlightAware
02:35AM 63.6570 -15.6330 102° East 546 628 35,000  Level FlightAware
02:35AM 63.6390 -15.4390 102° East 546 628 35,000  Level FlightAware
02:36AM 63.6200 -15.2390 102° East 546 628 35,000  Level FlightAware
02:36AM 63.6000 -15.0410 103° East 545 627 35,000  Level FlightAware
02:37AM 63.5820 -14.8540 102° East 544 626 35,000  Level FlightAware
02:38AM 63.5610 -14.6560 103° East 543 625 35,000  Level FlightAware
02:38AM 63.5410 -14.4590 103° East 543 625 35,000  Level FlightAware
02:39AM 63.5220 -14.2730 103° East 544 626 35,000  Level FlightAware
02:39AM 63.5000 -14.0760 104° East 544 626 35,000  Level FlightAware
02:40AM 63.4790 -13.8730 103° East 545 627 35,000  Level FlightAware
02:41AM 63.4610 -13.7040 103° East 545 627 35,000  Level FlightAware
02:41AM 63.4390 -13.5080 104° East 544 626 35,000  Level FlightAware
02:42AM 63.4220 -13.3560 104° East 545 627 35,000  Level FlightAware
02:42AM 63.4010 -13.1700 104° East 545 627 35,000  Level FlightAware
02:43AM 63.3780 -12.9750 105° East 544 626 35,000  Level FlightAware
02:43AM 63.3550 -12.7740 104° East 546 628 35,000  Level FlightAware
02:44AM 63.3340 -12.5950 105° East 546 628 35,000  Level FlightAware
02:45AM 63.3110 -12.3990 105° East 548 631 35,000  Level FlightAware
02:45AM 63.2870 -12.2040 105° East 547 629 35,000  Level FlightAware
02:46AM 63.2660 -12.0300 105° East 548 631 35,000  Level FlightAware
02:46AM 63.2420 -11.8350 105° East 548 631 35,000  Level FlightAware
02:47AM 63.2170 -11.6350 105° East 550 633 35,000  Level FlightAware
02:47AM 63.1930 -11.4460 106° East 550 633 35,000  Level FlightAware
02:48AM 63.1710 -11.2730 106° East 549 632 35,000  Level FlightAware
02:49AM 63.1460 -11.0790 106° East 548 631 35,000  Level FlightAware
02:49AM 63.1200 -10.8800 106° East 549 632 35,000  Level FlightAware
02:50AM 63.0940 -10.6920 107° East 550 633 35,000  Level FlightAware
02:50AM 63.0710 -10.5200 106° East 550 633 35,000  Level FlightAware
02:51AM 63.0450 -10.3270 106° East 552 635 35,000  Level FlightAware
02:52AM 63.0170 -10.1230 107° East 552 635 35,000  Level FlightAware
02:52AM 62.9930 -9.9510 107° East 552 635 35,000  Level FlightAware
02:53AM 62.9640 -9.7650 109° East 553 636 35,000  Level FlightAware
02:53AM 62.9380 -9.5920 108° East 553 636 35,000  Level FlightAware
02:54AM 62.9140 -9.4280 108° East 553 636 35,000  Level FlightAware
02:55AM 62.8900 -9.2650 108° East 553 636 35,000  Level FlightAware
02:55AM 62.8370 -8.9610 111° Southeast 558 642 35,000  Level FlightAware
02:56AM 62.8110 -8.7980 109° East 558 642 35,000  Level FlightAware
02:56AM 62.7730 -8.5730 110° East 564 649 35,000  Level FlightAware
02:57AM 62.7430 -8.3840 109° East 564 649 35,000  Level FlightAware
02:58AM 62.7040 -8.1610 111° Southeast 568 654 35,000  Level FlightAware
02:58AM 62.6700 -7.9620 110° East 570 656 35,000  Level FlightAware
02:59AM 62.6370 -7.7690 110° East 573 659 35,000  Level FlightAware
02:59AM 62.6070 -7.5970 111° Southeast 574 661 35,000  Level FlightAware
03:00AM 62.5740 -7.4040 110° East 574 661 35,000  Level FlightAware
03:01AM 62.5390 -7.2050 111° Southeast 575 662 35,000  Level FlightAware
03:01AM 62.5040 -7.0180 112° Southeast 575 662 35,000  Level FlightAware
03:02AM 62.4760 -6.8570 111° Southeast 575 662 35,000  Level FlightAware
03:02AM 62.4370 -6.6440 112° Southeast 576 663 35,000  Level FlightAware
03:03AM 62.4060 -6.4790 112° Southeast 575 662 35,000  Level FlightAware
03:04AM 62.3700 -6.2820 111° Southeast 576 663 35,000  Level FlightAware
03:04AM 62.3340 -6.0910 112° Southeast 576 663 35,000  Level FlightAware
03:05AM 62.3020 -5.9210 112° Southeast 576 663 35,000  Level FlightAware
03:05AM 62.2660 -5.7310 112° Southeast 577 664 35,000  Level FlightAware
03:06AM 62.2310 -5.5520 113° Southeast 577 664 35,000  Level FlightAware
03:06AM 62.1950 -5.3620 112° Southeast 578 665 35,000  Level FlightAware
03:07AM 62.1570 -5.1720 113° Southeast 579 666 35,000  Level FlightAware
03:08AM 62.1190 -4.9770 113° Southeast 581 669 35,000  Level FlightAware
03:08AM 62.0860 -4.8140 113° Southeast 582 670 35,000  Level FlightAware
03:09AM 62.0470 -4.6240 114° Southeast 585 673 35,000  Level FlightAware
03:09AM 62.0090 -4.4330 113° Southeast 586 674 35,000  Level FlightAware
03:10AM 61.9690 -4.2430 114° Southeast 588 677 35,000  Level FlightAware
03:11AM 61.9350 -4.0750 113° Southeast 588 677 35,000  Level FlightAware
03:11AM 61.8970 -3.8900 113° Southeast 589 678 35,000  Level FlightAware
03:12AM 61.8550 -3.6960 115° Southeast 589 678 35,000  Level FlightAware
03:12AM 61.8150 -3.5070 114° Southeast 590 679 35,000  Level FlightAware
03:13AM 61.7770 -3.3280 114° Southeast 591 680 35,000  Level FlightAware
03:13AM 61.7380 -3.1510 115° Southeast 590 679 35,000  Level FlightAware
03:14AM 61.7010 -2.9840 115° Southeast 590 679 35,000  Level FlightAware
03:15AM 61.6480 -2.7390 114° Southeast 591 680 35,000  Level FlightAware
03:15AM 61.6080 -2.5570 115° Southeast 590 679 35,000  Level FlightAware
03:16AM 61.5670 -2.3820 116° Southeast 591 680 35,000  Level FlightAware
03:17AM 61.5250 -2.1950 115° Southeast 592 681 35,000  Level FlightAware
03:17AM 61.4840 -2.0100 115° Southeast 593 682 35,000  Level FlightAware
03:18AM 61.4400 -1.8190 116° Southeast 593 682 35,000  Level FlightAware
03:18AM 61.4020 -1.6600 116° Southeast 592 681 35,000  Level FlightAware
03:19AM 61.3630 -1.4830 115° Southeast 592 681 35,000  Level FlightAware
03:20AM 61.3060 -1.2500 117° Southeast 594 684 35,000  Level FlightAware
03:20AM 61.2660 -1.0870 117° Southeast 595 685 35,000  Level FlightAware
03:21AM 61.2240 -0.9130 117° Southeast 596 686 35,000  Level FlightAware
03:21AM 61.1780 -0.7200 116° Southeast 595 685 35,000  Level FlightAware
03:22AM 61.1350 -0.5420 117° Southeast 595 685 35,000  Level FlightAware
03:22AM 61.0950 -0.3800 117° Southeast 596 686 35,000  Level FlightAware
03:23AM 61.0500 -0.2000 117° Southeast 596 686 35,000  Level FlightAware
03:24AM 61.0120 -0.0450 117° Southeast 596 686 35,000  Level FlightAware
03:24AM 60.9440 0.1710 123° Southeast 593 682 35,000  Level FlightAware
03:25AM 60.8850 0.3610 122° Southeast 593 682 35,000  Level FlightAware
03:25AM 60.8400 0.5020 123° Southeast 595 685 35,000  Level FlightAware
03:26AM 60.7880 0.6620 124° Southeast 595 685 35,000  Level FlightAware
03:27AM 60.7350 0.8270 123° Southeast 591 680 35,000  Level FlightAware
03:27AM 60.6740 1.0190 123° Southeast 591 680 35,000  Level FlightAware
03:28AM 60.6290 1.1590 123° Southeast 591 680 35,000  Level FlightAware
03:28AM 60.5750 1.3220 124° Southeast 591 680 35,000  Level FlightAware
03:29AM 60.5050 1.5310 124° Southeast 592 681 35,000  Level FlightAware
03:30AM 60.4570 1.6780 123° Southeast 597 687 35,000  Level FlightAware
03:30AM 60.3990 1.8490 124° Southeast 596 686 35,000  Level FlightAware
03:31AM 60.3430 2.0140 124° Southeast 597 687 35,000  Level FlightAware
03:31AM 60.2920 2.1660 124° Southeast 596 686 35,000  Level FlightAware
03:32AM 60.2330 2.3390 124° Southeast 596 686 35,000  Level FlightAware
03:33AM 60.1820 2.4850 125° Southeast 596 686 35,000  Level FlightAware
03:33AM 60.1250 2.6480 125° Southeast 596 686 35,000  Level FlightAware
03:34AM 60.0720 2.8010 125° Southeast 595 685 35,000  Level FlightAware
03:34AM 60.0150 2.9640 125° Southeast 596 686 35,000  Level FlightAware
03:35AM 59.9570 3.1250 126° Southeast 596 686 35,000  Level FlightAware
03:36AM 59.9050 3.2730 125° Southeast 596 686 35,000  Level FlightAware
03:36AM 59.8490 3.4280 126° Southeast 597 687 35,000  Level FlightAware
03:37AM 59.7930 3.5840 125° Southeast 596 686 35,000  Level FlightAware
03:37AM 59.7360 3.7390 126° Southeast 597 687 35,000  Level FlightAware
03:38AM 59.6810 3.8900 126° Southeast 597 687 35,000  Level FlightAware
03:39AM 59.6170 4.0660 126° Southeast 596 686 35,000  Level FlightAware
03:39AM 59.5670 4.2020 126° Southeast 596 686 35,000  Level FlightAware
03:40AM 59.5160 4.3383 126° Southeast 496 571 35,000  Level FlightAware UK
03:40AM 59.5100 4.3500 126° Southeast 596 686 35,000  Level FlightAware
03:40AM 59.4470 4.5211 126° Southeast 496 571 35,000  Level FlightAware UK
03:40AM 59.4500 4.5100 126° Southeast 596 686 35,000  Level FlightAware
03:41AM 59.3978 4.6510 126° Southeast 498 573 35,000  Level FlightAware UK
03:41AM 59.3870 4.6750 126° Southeast 597 687 35,000  Level FlightAware
03:41AM 59.3400 4.7960 127° Southeast 597 687 35,000  Level FlightAware
03:42AM 59.2730 4.9680 127° Southeast 598 688 35,000  Level FlightAware
03:43AM 59.2190 5.1100 127° Southeast 598 688 35,000  Level FlightAware
03:43AM 59.1600 5.2600 127° Southeast 597 687 35,000  Level FlightAware
03:44AM 59.1010 5.4130 127° Southeast 598 688 35,000  Level FlightAware
03:44AM 59.0400 5.5620 128° Southeast 598 688 35,000  Level FlightAware
03:45AM 58.9820 5.7110 127° Southeast 598 688 35,000  Level FlightAware
03:45AM 58.9210 5.8630 128° Southeast 599 689 35,000  Level FlightAware
03:46AM 58.8640 6.0060 128° Southeast 599 689 35,000  Level FlightAware
03:47AM 58.8040 6.1530 128° Southeast 598 688 35,000  Level FlightAware
03:47AM 58.7430 6.3000 129° Southeast 598 688 35,000  Level FlightAware
03:48AM 58.6830 6.4490 128° Southeast 597 687 35,000  Level FlightAware
03:48AM 58.6250 6.5860 129° Southeast 597 687 35,000  Level FlightAware
03:49AM 58.5630 6.7350 129° Southeast 597 687 35,000  Level FlightAware
03:50AM 58.5040 6.8790 128° Southeast 597 687 35,000  Level FlightAware
03:50AM 58.4450 7.0180 129° Southeast 596 686 35,000  Level FlightAware
03:51AM 58.3830 7.1650 129° Southeast 597 687 35,000  Level FlightAware
03:51AM 58.3240 7.3000 130° Southeast 597 687 35,000  Level FlightAware
03:52AM 58.2560 7.4620 129° Southeast 597 687 35,000  Level FlightAware
03:52AM 58.1980 7.5960 129° Southeast 597 687 35,000  Level FlightAware
03:53AM 58.1370 7.7330 130° Southeast 598 688 35,000  Level FlightAware
03:54AM 58.0730 7.8820 129° Southeast 598 688 35,000  Level FlightAware
03:54AM 58.0090 8.0260 130° Southeast 599 689 35,000  Level FlightAware
03:55AM 57.9550 8.1500 129° Southeast 599 689 35,000  Level FlightAware
03:55AM 57.8890 8.2980 130° Southeast 599 689 35,000  Level FlightAware
03:56AM 57.8270 8.4370 130° Southeast 598 688 35,000  Level FlightAware
03:57AM 57.7610 8.5830 130° Southeast 599 689 35,000  Level FlightAware
03:57AM 57.7030 8.7100 130° Southeast 600 690 35,000  Level FlightAware
03:58AM 57.6420 8.8440 130° Southeast 600 690 35,000  Level FlightAware
03:58AM 57.5750 8.9890 131° Southeast 601 692 35,000  Level FlightAware
03:59AM 57.5150 9.1220 130° Southeast 599 689 35,000  Level FlightAware
04:00AM 57.4490 9.2620 131° Southeast 599 689 35,000  Level FlightAware
04:00AM 57.3890 9.3900 131° Southeast 599 689 35,000  Level FlightAware
04:01AM 57.3250 9.5260 131° Southeast 600 690 35,000  Level FlightAware
04:01AM 57.2560 9.6730 131° Southeast 600 690 35,000  Level FlightAware
04:02AM 57.1910 9.8120 131° Southeast 600 690 35,000  Level FlightAware
04:02AM 57.1330 9.9280 133° Southeast 600 690 35,000  Level FlightAware
04:03AM 57.0510 10.0420 143° Southeast 597 687 35,000  Level FlightAware
04:04AM 56.9630 10.1350 150° Southeast 596 686 35,000  Level FlightAware
04:04AM 56.8940 10.2240 145° Southeast 597 687 35,000  Level FlightAware
04:05AM 56.8100 10.3300 145° Southeast 596 686 35,000  Level FlightAware
04:05AM 56.7330 10.4260 146° Southeast 597 687 35,000  Level FlightAware
04:06AM 56.6570 10.5170 147° Southeast 597 687 35,000  Level FlightAware
04:06AM 56.5720 10.6150 148° Southeast 596 686 35,000  Level FlightAware
04:07AM 56.4900 10.7130 147° Southeast 595 685 35,000  Level FlightAware
04:08AM 56.4040 10.8120 147° Southeast 596 686 35,000  Level FlightAware
04:08AM 56.3200 10.9090 147° Southeast 596 686 35,000  Level FlightAware
04:09AM 56.2510 10.9890 147° Southeast 596 686 35,000  Level FlightAware
04:09AM 56.1620 11.0930 147° Southeast 595 685 35,000  Level FlightAware
04:10AM 56.0880 11.1780 147° Southeast 596 686 35,000  Level FlightAware
04:11AM 56.0050 11.2700 148° Southeast 596 686 35,000  Level FlightAware
04:11AM 55.9290 11.3570 147° Southeast 596 686 35,000  Level FlightAware
04:12AM 55.8290 11.4690 148° Southeast 596 686 35,000  Level FlightAware
04:12AM 55.7520 11.5260 157° South 581 669 35,000  Level FlightAware
04:13AM 55.6600 11.5810 161° South 581 669 35,000  Level FlightAware
04:13AM 55.5880 11.6260 161° South 581 669 35,000  Level FlightAware
04:14AM 55.4710 11.7020 160° South 581 669 35,000  Level FlightAware
04:15AM 55.3820 11.7620 159° South 587 676 35,000  Level FlightAware
04:15AM 55.2810 11.8310 159° South 587 676 35,000  Level FlightAware
04:16AM 55.2050 11.8820 159° South 587 676 35,000  Level FlightAware
04:16AM 55.1160 11.9420 159° South 587 676 35,000  Level FlightAware
04:17AM 55.0280 12.0020 159° South 587 676 35,000  Level FlightAware
04:18AM 54.9370 12.0630 159° South 588 677 35,000  Level FlightAware
04:18AM 54.8510 12.1190 159° South 580 667 35,000  Level FlightAware
04:19AM 54.7610 12.1750 160° South 580 667 35,000  Level FlightAware
04:19AM 54.6580 12.2390 160° South 580 667 35,000  Level FlightAware
04:20AM 54.5690 12.2960 160° South 580 667 35,000  Level FlightAware
04:21AM 54.4660 12.3590 160° South 580 667 35,000  Level FlightAware
04:21AM 54.3770 12.4140 160° South 580 667 35,000  Level FlightAware
04:22AM 54.2870 12.4690 160° South 579 666 35,000  Level FlightAware
04:22AM 54.2210 12.5100 160° South 578 665 35,000  Level FlightAware
04:23AM 54.1270 12.5670 160° South 586 674 35,000  Level FlightAware
04:24AM 54.0240 12.6290 161° South 585 673 35,000  Level FlightAware
04:24AM 53.9390 12.6800 161° South 584 672 35,000  Level FlightAware
04:25AM 53.8430 12.7390 160° South 585 673 35,000  Level FlightAware
04:25AM 53.7600 12.7890 160° South 585 673 35,000  Level FlightAware
04:26AM 53.6630 12.8470 160° South 586 674 35,000  Level FlightAware
04:27AM 53.5840 12.8940 161° South 586 674 35,000  Level FlightAware
04:27AM 53.4840 12.9520 161° South 586 674 35,000  Level FlightAware
04:28AM 53.4050 12.9990 160° South 586 674 35,000  Level FlightAware
04:28AM 53.3110 13.0530 161° South 585 673 35,000  Level FlightAware
04:29AM 53.2230 13.1100 159° South 586 674 35,000  Level FlightAware
04:29AM 53.1300 13.1770 157° South 587 676 35,000  Level FlightAware
04:30AM 53.0490 13.2340 157° South 586 674 35,000  Level FlightAware
04:31AM 52.9690 13.2930 156° South 586 674 35,000  Level FlightAware
04:31AM 52.8660 13.3660 157° South 586 674 35,000  Level FlightAware
04:32AM 52.7900 13.4220 156° South 584 672 35,000  Level FlightAware
04:32AM 52.7030 13.4830 157° South 584 672 35,000  Level FlightAware
04:33AM 52.6110 13.5480 157° South 582 670 35,000  Level FlightAware
04:34AM 52.5180 13.6130 157° South 582 670 35,000  Level FlightAware
04:34AM 52.4310 13.6730 157° South 582 670 35,000  Level FlightAware
04:35AM 52.3500 13.7280 157° South 582 670 35,000  Level FlightAware
04:35AM 52.2590 13.7920 157° South 581 669 35,000  Level FlightAware
04:36AM 52.1740 13.8500 157° South 580 667 35,000  Level FlightAware
04:36AM 52.0950 13.9060 156° South 579 666 35,000  Level FlightAware
04:37AM 52.0030 13.9680 157° South 579 666 35,000  Level FlightAware
04:38AM 51.9040 14.0360 157° South 579 666 35,000  Level FlightAware
04:38AM 51.8160 14.0980 156° South 579 666 35,000  Level FlightAware
04:39AM 51.7230 14.1740 153° Southeast 579 666 35,000  Level FlightAware
04:40AM 51.6490 14.2390 151° Southeast 579 666 35,000  Level FlightAware
04:40AM 51.5660 14.3140 151° Southeast 577 664 35,000  Level FlightAware
04:41AM 51.4780 14.3910 151° Southeast 576 663 35,000  Level FlightAware
04:41AM 51.3960 14.4650 151° Southeast 576 663 35,000  Level FlightAware
04:42AM 51.3180 14.5330 151° Southeast 574 661 35,000  Level FlightAware
04:42AM 51.2310 14.6100 151° Southeast 573 659 35,000  Level FlightAware
04:43AM 51.1460 14.6820 152° Southeast 571 657 35,000  Level FlightAware
04:44AM 51.0570 14.7600 151° Southeast 570 656 35,000  Level FlightAware
04:44AM 50.9790 14.8280 151° Southeast 568 654 35,000  Level FlightAware
04:45AM 50.9030 14.8930 152° Southeast 567 652 35,000  Level FlightAware
04:45AM 50.8210 14.9620 152° Southeast 564 649 35,000  Level FlightAware
04:46AM 50.7390 15.0320 152° Southeast 563 648 35,000  Level FlightAware
04:47AM 50.6690 15.0920 151° Southeast 561 646 35,000  Level FlightAware
04:47AM 50.5850 15.1880 144° Southeast 556 640 35,000  Level FlightAware
04:48AM 50.5160 15.2720 142° Southeast 555 639 35,000  Level FlightAware
04:48AM 50.4470 15.3540 143° Southeast 556 640 35,000  Level FlightAware
04:49AM 50.3690 15.4420 144° Southeast 556 640 35,000  Level FlightAware
04:50AM 50.3040 15.5150 144° Southeast 556 640 35,000  Level FlightAware
04:50AM 50.2200 15.6140 143° Southeast 555 639 35,000  Level FlightAware
04:51AM 50.1460 15.7010 143° Southeast 555 639 35,000  Level FlightAware
04:51AM 50.0800 15.7780 143° Southeast 555 639 35,000  Level FlightAware
04:52AM 50.0060 15.8660 143° Southeast 555 639 35,000  Level FlightAware
04:53AM 49.9310 15.9520 144° Southeast 554 638 35,000  Level FlightAware
04:53AM 49.8580 16.0370 143° Southeast 554 638 35,000  Level FlightAware
04:54AM 49.7910 16.1130 144° Southeast 553 636 35,000  Level FlightAware
04:54AM 49.7170 16.1980 143° Southeast 553 636 35,000  Level FlightAware
04:55AM 49.6430 16.2820 144° Southeast 552 635 35,000  Level FlightAware
04:55AM 49.5770 16.3570 144° Southeast 552 635 35,000  Level FlightAware
04:56AM 49.5040 16.4410 143° Southeast 553 636 35,000  Level FlightAware
04:57AM 49.4280 16.5280 143° Southeast 554 638 35,000  Level FlightAware
04:57AM 49.3650 16.5990 144° Southeast 552 635 35,000  Level FlightAware
04:58AM 49.2820 16.6920 144° Southeast 553 636 35,000  Level FlightAware
04:58AM 49.2150 16.7660 144° Southeast 555 639 35,000  Level FlightAware
04:59AM 49.1400 16.8500 144° Southeast 556 640 35,000  Level FlightAware
05:00AM 49.0660 16.9330 144° Southeast 558 642 35,000  Level FlightAware
05:00AM 48.9940 17.0110 145° Southeast 558 642 35,000  Level FlightAware
05:01AM 48.9240 17.0860 145° Southeast 558 642 35,000  Level FlightAware
05:01AM 48.8560 17.1600 144° Southeast 556 640 35,000  Level FlightAware
05:02AM 48.7790 17.2430 145° Southeast 555 639 35,000  Level FlightAware
05:03AM 48.6910 17.3350 145° Southeast 553 636 35,000  Level FlightAware
05:03AM 48.6180 17.4130 145° Southeast 553 636 35,000  Level FlightAware
05:04AM 48.5390 17.4970 145° Southeast 553 636 35,000  Level FlightAware
05:04AM 48.4710 17.5680 145° Southeast 554 638 35,000  Level FlightAware
05:05AM 48.3970 17.6470 145° Southeast 552 635 35,000  Level FlightAware
05:05AM 48.3250 17.7220 145° Southeast 551 634 35,000  Level FlightAware
05:06AM 48.2470 17.8050 145° Southeast 551 634 35,000  Level FlightAware
05:07AM 48.1760 17.8790 145° Southeast 552 635 35,000  Level FlightAware
05:07AM 48.1050 17.9510 146° Southeast 552 635 35,000  Level FlightAware
05:08AM 48.0360 18.0230 145° Southeast 552 635 35,000  Level FlightAware
05:08AM 47.9530 18.1090 145° Southeast 551 634 35,000  Level FlightAware
05:09AM 47.8820 18.1820 145° Southeast 552 635 35,000  Level FlightAware
05:10AM 47.8090 18.2550 146° Southeast 550 633 35,000  Level FlightAware
05:10AM 47.7320 18.3290 147° Southeast 555 639 35,000  Level FlightAware
05:11AM 47.6580 18.3870 152° Southeast 556 640 35,000  Level FlightAware
05:12AM 47.5720 18.4600 150° Southeast 551 634 35,000  Level FlightAware
05:12AM 47.4720 18.5550 147° Southeast 551 634 35,000  Level FlightAware
05:13AM 47.3950 18.6260 148° Southeast 548 631 35,000  Level FlightAware
05:13AM 47.3220 18.6920 148° Southeast 549 632 35,000  Level FlightAware
05:14AM 47.2500 18.7540 150° Southeast 547 629 35,000  Level FlightAware
05:14AM 47.1650 18.8290 149° Southeast 546 628 35,000  Level FlightAware
05:15AM 47.0870 18.8990 149° Southeast 543 625 35,000  Level FlightAware
05:16AM 47.0170 18.9620 148° Southeast 542 624 35,000  Level FlightAware
05:16AM 46.9380 19.0330 148° Southeast 538 619 35,000  Level FlightAware
05:17AM 46.8710 19.0910 149° Southeast 535 616 35,000  Level FlightAware
05:17AM 46.7960 19.1590 148° Southeast 534 615 35,000  Level FlightAware
05:18AM 46.7280 19.2190 149° Southeast 534 615 35,000  Level FlightAware
05:18AM 46.6520 19.2860 149° Southeast 534 615 35,000  Level FlightAware
05:19AM 46.5830 19.3480 148° Southeast 525 604 35,000  Level FlightAware
05:20AM 46.5060 19.4160 149° Southeast 530 610 35,000  Level FlightAware
05:20AM 46.4310 19.4810 149° Southeast 532 612 35,000  Level FlightAware
05:21AM 46.3460 19.5560 149° Southeast 531 611 35,000  Level FlightAware
05:21AM 46.2810 19.6130 149° Southeast 531 611 35,000  Level FlightAware
05:22AM 46.2040 19.6780 150° Southeast 531 611 35,000  Level FlightAware
05:23AM 46.1230 19.7390 152° Southeast 532 612 35,000  Level FlightAware
05:23AM 46.0550 19.7890 153° Southeast 532 612 35,000  Level FlightAware
05:24AM 45.9800 19.8430 153° Southeast 534 615 35,000  Level FlightAware
05:24AM 45.8960 19.9060 152° Southeast 533 613 35,000  Level FlightAware
05:25AM 45.8150 19.9640 153° Southeast 533 613 35,000 120 Level FlightAware
05:26AM 45.7400 20.0180 153° Southeast 536 617 35,200 780 Climbing FlightAware
05:26AM 45.6680 20.0710 153° Southeast 536 617 35,900 1,260 Climbing FlightAware
05:27AM 45.5860 20.1300 153° Southeast 535 616 36,700 900 Climbing FlightAware
05:27AM 45.5090 20.1860 153° Southeast 536 617 37,000 240 Climbing FlightAware
05:28AM 45.4410 20.2330 154° Southeast 535 616 37,000  Level FlightAware
05:28AM 45.3670 20.2820 155° Southeast 533 613 37,000  Level FlightAware
05:29AM 45.2860 20.3370 154° Southeast 531 611 37,000  Level FlightAware
05:30AM 45.1980 20.3970 154° Southeast 531 611 37,000  Level FlightAware
05:30AM 45.1350 20.4390 155° Southeast 531 611 37,000  Level FlightAware
05:31AM 45.0520 20.4940 155° Southeast 530 610 37,000  Level FlightAware
05:31AM 44.9460 20.5650 155° Southeast 531 611 37,000  Level FlightAware
05:32AM 44.8660 20.6190 154° Southeast 530 610 37,000  Level FlightAware
05:33AM 44.8020 20.6610 155° Southeast 529 609 37,000  Level FlightAware
05:33AM 44.7170 20.7180 155° Southeast 530 610 37,000  Level FlightAware
05:34AM 44.6370 20.7700 155° Southeast 530 610 37,000  Level FlightAware
05:34AM 44.5700 20.8150 154° Southeast 529 609 37,000  Level FlightAware
05:35AM 44.4860 20.8700 155° Southeast 530 610 37,000  Level FlightAware
05:36AM 44.4090 20.9200 155° Southeast 531 611 37,000  Level FlightAware
05:36AM 44.3310 20.9710 155° Southeast 530 610 37,000  Level FlightAware
05:37AM 44.2640 21.0150 155° Southeast 531 611 37,000  Level FlightAware
05:37AM 44.1700 21.0760 155° Southeast 532 612 37,000  Level FlightAware
05:38AM 44.0950 21.1240 155° Southeast 531 611 37,000  Level FlightAware
05:38AM 44.0160 21.1760 155° Southeast 530 610 37,000  Level FlightAware
05:39AM 43.9370 21.2260 155° Southeast 531 611 37,000  Level FlightAware
05:40AM 43.8590 21.2760 155° Southeast 531 611 37,000  Level FlightAware
05:40AM 43.7850 21.3250 154° Southeast 531 611 37,000  Level FlightAware
05:41AM 43.7040 21.3760 156° South 530 610 37,000  Level FlightAware
05:41AM 43.6300 21.4230 155° Southeast 530 610 37,000  Level FlightAware
05:42AM 43.5460 21.4760 155° Southeast 529 609 37,000  Level FlightAware
05:43AM 43.4740 21.5210 156° South 529 609 37,000  Level FlightAware
05:43AM 43.3930 21.5720 155° Southeast 529 609 37,000  Level FlightAware
05:44AM 43.3110 21.6240 155° Southeast 528 608 37,000  Level FlightAware
05:44AM 43.2370 21.6710 155° Southeast 528 608 37,000  Level FlightAware
05:45AM 43.1560 21.7210 156° South 528 608 37,000  Level FlightAware
05:45AM 43.0800 21.7680 156° South 528 608 37,000  Level FlightAware
05:46AM 43.0050 21.8140 156° South 528 608 37,000  Level FlightAware
05:47AM 42.9250 21.8650 155° Southeast 528 608 37,000  Level FlightAware
05:47AM 42.8440 21.9150 156° South 528 608 37,000  Level FlightAware
05:48AM 42.7650 21.9640 156° South 527 606 37,000  Level FlightAware
05:48AM 42.6930 22.0080 156° South 526 605 37,000  Level FlightAware
05:49AM 42.6180 22.0540 156° South 525 604 37,000  Level FlightAware
05:50AM 42.5360 22.1040 156° South 525 604 37,000  Level FlightAware
05:50AM 42.4570 22.1530 155° Southeast 524 603 37,000  Level FlightAware
05:51AM 42.3890 22.1930 157° South 522 601 37,000  Level FlightAware
05:51AM 42.3030 22.2390 158° South 526 605 37,000  Level FlightAware
05:52AM 42.2220 22.2760 161° South 526 605 37,000  Level FlightAware
05:53AM 42.1390 22.3150 161° South 526 605 37,000  Level FlightAware
05:53AM 42.0690 22.3470 161° South 525 604 37,000  Level FlightAware
05:54AM 41.9810 22.3870 161° South 524 603 37,000  Level FlightAware
05:54AM 41.9020 22.4240 161° South 523 602 37,000  Level FlightAware
05:55AM 41.8170 22.4630 161° South 520 598 37,000  Level FlightAware
05:55AM 41.7420 22.4970 161° South 520 598 37,000  Level FlightAware
05:56AM 41.6660 22.5310 162° South 519 597 37,000  Level FlightAware
05:57AM 41.5750 22.5720 161° South 517 595 37,000  Level FlightAware
05:57AM 41.5040 22.6050 161° South 516 594 37,000  Level FlightAware
05:58AM 41.4220 22.6420 161° South 516 594 37,000  Level FlightAware
05:58AM 41.3460 22.6760 161° South 516 594 37,000  Level FlightAware
05:59AM 41.2650 22.7120 162° South 517 595 37,000  Level FlightAware
06:00AM 41.1730 22.7530 161° South 516 594 37,000  Level FlightAware
06:00AM 41.0910 22.7900 161° South 516 594 37,000  Level FlightAware
06:01AM 41.0050 22.8280 162° South 514 592 37,000  Level FlightAware
06:01AM 40.9330 22.8600 161° South 513 590 37,000  Level FlightAware
06:02AM 40.8520 22.8960 161° South 510 587 37,000  Level FlightAware
06:02AM 40.7800 22.9270 162° South 507 583 37,000  Level FlightAware
06:03AM 40.7020 22.9630 161° South 505 581 37,000  Level FlightAware
06:04AM 40.6170 23.0000 162° South 504 580 37,000  Level FlightAware
06:04AM 40.5360 23.0350 162° South 502 578 37,000  Level FlightAware
06:05AM 40.4660 23.0650 162° South 501 577 37,000  Level FlightAware
06:05AM 40.3870 23.1000 161° South 500 575 37,000  Level FlightAware
06:06AM 40.3080 23.1340 162° South 499 574 37,000  Level FlightAware
06:07AM 40.2320 23.1680 161° South 502 578 37,000  Level FlightAware
06:07AM 40.1580 23.1990 162° South 501 577 37,000  Level FlightAware
06:08AM 40.0780 23.2330 162° South 502 578 37,000  Level FlightAware
06:08AM 39.9990 23.2680 161° South 503 579 37,000  Level FlightAware
06:09AM 39.9190 23.3020 162° South 505 581 37,000  Level FlightAware
06:09AM 39.8530 23.3310 161° South 505 581 37,000  Level FlightAware
06:10AM 39.7710 23.3660 162° South 507 583 37,000  Level FlightAware
06:11AM 39.7120 23.3950 159° South 500 575 37,000  Level FlightAware
06:11AM 39.6380 23.4600 146° Southeast 497 572 37,000  Level FlightAware
06:12AM 39.5710 23.5160 147° Southeast 500 575 37,000  Level FlightAware
06:12AM 39.5070 23.5690 147° Southeast 503 579 37,000  Level FlightAware
06:13AM 39.4370 23.6240 149° Southeast 505 581 37,000  Level FlightAware
06:13AM 39.3620 23.6810 150° Southeast 507 583 37,000  Level FlightAware
06:14AM 39.2900 23.7380 148° Southeast 506 582 37,000  Level FlightAware
06:15AM 39.2310 23.7870 147° Southeast 506 582 37,000  Level FlightAware
06:15AM 39.1580 23.8480 147° Southeast 507 583 37,000  Level FlightAware
06:16AM 39.0860 23.9090 147° Southeast 508 585 37,000  Level FlightAware
06:16AM 39.0150 23.9680 147° Southeast 510 587 37,000  Level FlightAware
06:17AM 38.9510 24.0200 148° Southeast 511 588 37,000  Level FlightAware
06:18AM 38.8780 24.0790 148° Southeast 511 588 37,000  Level FlightAware
06:18AM 38.8100 24.1370 146° Southeast 510 587 37,000  Level FlightAware
06:19AM 38.7480 24.1870 148° Southeast 511 588 37,000  Level FlightAware
06:19AM 38.6710 24.2490 148° Southeast 511 588 37,000  Level FlightAware
06:20AM 38.6070 24.3010 148° Southeast 508 585 37,000  Level FlightAware
06:20AM 38.5310 24.3620 148° Southeast 506 582 37,000  Level FlightAware
06:21AM 38.4630 24.4190 147° Southeast 508 585 37,000  Level FlightAware
06:22AM 38.3900 24.4780 148° Southeast 509 586 37,000  Level FlightAware
06:22AM 38.3180 24.5360 148° Southeast 508 585 37,000  Level FlightAware
06:23AM 38.2530 24.5870 148° Southeast 508 585 37,000  Level FlightAware
06:23AM 38.1800 24.6470 147° Southeast 510 587 37,000  Level FlightAware
06:24AM 38.1110 24.7030 147° Southeast 511 588 37,000  Level FlightAware
06:25AM 38.0460 24.7540 148° Southeast 512 589 37,000  Level FlightAware
06:25AM 37.9740 24.8120 148° Southeast 515 593 37,000  Level FlightAware
06:26AM 37.8970 24.8730 148° Southeast 515 593 37,000  Level FlightAware
06:26AM 37.8320 24.9240 148° Southeast 513 590 37,000  Level FlightAware
06:27AM 37.7610 24.9820 147° Southeast 511 588 37,000  Level FlightAware
06:27AM 37.6870 25.0390 149° Southeast 510 587 37,000  Level FlightAware
06:28AM 37.6170 25.0960 147° Southeast 510 587 37,000  Level FlightAware
06:29AM 37.5520 25.1460 149° Southeast 512 589 37,000  Level FlightAware
06:29AM 37.4780 25.2050 148° Southeast 513 590 37,000  Level FlightAware
06:30AM 37.4070 25.2600 148° Southeast 513 590 37,000  Level FlightAware
06:30AM 37.3330 25.3170 149° Southeast 513 590 37,000  Level FlightAware
06:31AM 37.2970 25.3540 141° Southeast 515 593 37,000  Level FlightAware
06:31AM 37.2660 25.4030 128° Southeast 519 597 37,000  Level FlightAware
06:31AM 37.2450 25.4540 117° Southeast 523 602 37,000  Level FlightAware
06:32AM 37.2150 25.5440 113° Southeast 524 603 37,000  Level FlightAware
06:33AM 37.1790 25.6560 112° Southeast 524 603 37,000  Level FlightAware
06:33AM 37.1480 25.7490 113° Southeast 525 604 37,000  Level FlightAware
06:34AM 37.1180 25.8420 112° Southeast 526 605 37,000  Level FlightAware
06:34AM 37.0830 25.9460 113° Southeast 528 608 37,000  Level FlightAware
06:35AM 37.0460 26.0520 114° Southeast 528 608 37,000  Level FlightAware
06:36AM 37.0150 26.1380 114° Southeast 528 608 37,000  Level FlightAware
06:36AM 36.9740 26.2390 117° Southeast 529 609 37,000  Level FlightAware
06:37AM 36.9290 26.3380 120° Southeast 530 610 37,000  Level FlightAware
06:37AM 36.8830 26.4430 119° Southeast 529 609 37,000  Level FlightAware
06:38AM 36.8390 26.5380 120° Southeast 528 608 37,000  Level FlightAware
06:39AM 36.7980 26.6310 119° Southeast 529 609 37,000  Level FlightAware
06:39AM 36.7550 26.7240 120° Southeast 529 609 37,000  Level FlightAware
06:40AM 36.7120 26.8190 119° Southeast 528 608 37,000  Level FlightAware
06:40AM 36.6730 26.9040 120° Southeast 529 609 37,000  Level FlightAware
06:41AM 36.6280 27.0030 120° Southeast 531 611 37,000  Level FlightAware
06:41AM 36.5880 27.0900 120° Southeast 532 612 37,000  Level FlightAware
06:42AM 36.5350 27.2050 120° Southeast 533 613 37,000  Level FlightAware
06:43AM 36.4870 27.3110 119° Southeast 535 616 37,000  Level FlightAware
06:43AM 36.4410 27.4100 120° Southeast 536 617 37,000  Level FlightAware
06:44AM 36.3980 27.5050 119° Southeast 537 618 37,000  Level FlightAware
06:45AM 36.3430 27.6220 120° Southeast 542 624 37,000  Level FlightAware
06:45AM 36.3000 27.7140 120° Southeast 543 625 37,000  Level FlightAware
06:46AM 36.2560 27.8080 120° Southeast 545 627 37,000  Level FlightAware
06:47AM 36.2100 27.9050 120° Southeast 547 629 37,000  Level FlightAware
06:47AM 36.1680 27.9950 120° Southeast 548 631 37,000  Level FlightAware
06:48AM 36.1240 28.0900 120° Southeast 550 633 37,000  Level FlightAware
06:48AM 36.0770 28.1910 120° Southeast 551 634 37,000  Level FlightAware
06:49AM 36.0310 28.2860 121° Southeast 552 635 37,000  Level FlightAware
06:49AM 35.9900 28.3730 120° Southeast 552 635 37,000  Level FlightAware
06:50AM 35.9430 28.4710 121° Southeast 551 634 37,000  Level FlightAware
06:51AM 35.8960 28.5710 120° Southeast 550 633 37,000  Level FlightAware
06:51AM 35.8500 28.6660 121° Southeast 550 633 37,000  Level FlightAware
06:52AM 35.8080 28.7550 120° Southeast 550 633 37,000  Level FlightAware
06:52AM 35.7620 28.8490 121° Southeast 551 634 37,000  Level FlightAware
06:53AM 35.7150 28.9470 121° Southeast 551 634 37,000  Level FlightAware
06:54AM 35.6680 29.0460 120° Southeast 551 634 37,000  Level FlightAware
06:54AM 35.6270 29.1300 121° Southeast 552 635 37,000  Level FlightAware
06:55AM 35.5790 29.2270 121° Southeast 551 634 37,000  Level FlightAware
06:55AM 35.5320 29.3260 120° Southeast 550 633 37,000  Level FlightAware
06:56AM 35.4920 29.4060 122° Southeast 551 634 37,000  Level FlightAware
06:56AM 35.4420 29.5080 121° Southeast 548 631 37,000  Level FlightAware
06:57AM 35.4020 29.5920 120° Southeast 549 632 37,000  Level FlightAware
06:58AM 35.3530 29.6870 122° Southeast 543 625 37,000  Level FlightAware
06:58AM 35.2990 29.7740 127° Southeast 541 623 37,000  Level FlightAware
06:59AM 35.2420 29.8680 127° Southeast 542 624 37,000  Level FlightAware
07:00AM 35.1590 30.0050 127° Southeast 547 629 37,000  Level FlightAware
07:00AM 35.0990 30.1040 127° Southeast 544 626 37,000  Level FlightAware
07:01AM 35.0460 30.1910 127° Southeast 545 627 37,000  Level FlightAware
07:02AM 34.9910 30.2810 127° Southeast 547 629 37,000  Level FlightAware
07:02AM 34.9370 30.3680 127° Southeast 547 629 37,000  Level FlightAware
07:03AM 34.8820 30.4580 127° Southeast 547 629 37,000  Level FlightAware
07:03AM 34.8240 30.5520 127° Southeast 546 628 37,000  Level FlightAware
07:04AM 34.7740 30.6340 127° Southeast 546 628 37,000  Level FlightAware
07:04AM 34.7250 30.7140 127° Southeast 542 624 37,000  Level FlightAware
07:05AM 34.6710 30.7990 128° Southeast 542 624 37,000  Level FlightAware
07:06AM 34.6190 30.8840 127° Southeast 539 620 37,000  Level FlightAware
07:06AM 34.5590 30.9800 127° Southeast 539 620 37,000  Level FlightAware
07:07AM 34.5110 31.0570 127° Southeast 539 620 37,000  Level FlightAware
07:07AM 34.4600 31.1390 127° Southeast 538 619 37,000  Level FlightAware
07:08AM 34.4080 31.2200 128° Southeast 537 618 37,000  Level FlightAware
07:09AM 34.3460 31.3180 127° Southeast 536 617 37,000  Level FlightAware
07:09AM 34.3010 31.3900 127° Southeast 536 617 37,000  Level FlightAware
07:10AM 34.2410 31.4850 127° Southeast 535 616 37,000  Level FlightAware
07:10AM 34.1960 31.5570 127° Southeast 536 617 37,000  Level FlightAware
07:11AM 34.1650 31.6070 127° Southeast 535 616 37,000  Level FlightAware
07:11AM 34.0880 31.7280 128° Southeast 536 617 37,000  Level FlightAware
07:12AM 34.0340 31.8110 128° Southeast 532 612 37,000  Level FlightAware
07:13AM 33.9880 31.8840 127° Southeast 532 612 37,000  Level FlightAware
07:13AM 33.9280 31.9770 128° Southeast 532 612 37,000  Level FlightAware
07:14AM 33.8740 32.0620 127° Southeast 533 613 37,000  Level FlightAware
07:14AM 33.8120 32.1570 128° Southeast 534 615 37,000  Level FlightAware
07:15AM 33.7590 32.2400 128° Southeast 535 616 37,000  Level FlightAware
07:16AM 33.7050 32.3230 128° Southeast 536 617 37,000  Level FlightAware
07:16AM 33.6490 32.4080 128° Southeast 535 616 37,000  Level FlightAware
07:17AM 33.5910 32.4980 128° Southeast 540 621 37,000  Level FlightAware
07:17AM 33.5360 32.5830 128° Southeast 540 621 37,000 -480 Level FlightAware
07:18AM 33.4810 32.6680 128° Southeast 538 619 36,500 -1,080 Descending FlightAware
07:19AM 33.4350 32.7380 128° Southeast 539 620 35,800 -1,500 Descending FlightAware
07:19AM 33.3700 32.8360 128° Southeast 531 611 34,700 -1,920 Descending FlightAware
07:20AM 33.3230 32.9070 128° Southeast 523 602 33,500 -2,100 Descending FlightAware
07:21AM 33.2600 33.0030 128° Southeast 511 588 32,100 -2,160 Descending FlightAware
07:21AM 33.2010 33.0930 128° Southeast 501 577 30,500 -2,400 Descending FlightAware
07:22AM 33.1460 33.1770 128° Southeast 496 571 29,000 -2,460 Descending FlightAware
07:22AM 33.0940 33.2560 128° Southeast 486 559 27,600 -2,640 Descending FlightAware
07:23AM 33.0390 33.3370 129° Southeast 481 554 25,800 -2,580 Descending FlightAware
07:24AM 32.9880 33.4130 129° Southeast 470 541 24,400 -2,340 Descending FlightAware
07:24AM 32.9410 33.4830 129° Southeast 460 529 23,000 -2,340 Descending FlightAware
07:25AM 32.8960 33.5510 128° Southeast 456 525 21,800 -2,040 Descending FlightAware
07:25AM 32.8470 33.6240 129° Southeast 445 512 20,600 -1,920 Descending FlightAware
07:26AM 32.8020 33.6900 129° Southeast 434 499 19,500 -1,980 Descending FlightAware
07:27AM 32.7630 33.7500 128° Southeast 425 489 18,400 -2,040 Descending FlightAware
07:27AM 32.7180 33.8160 129° Southeast 413 475 17,200 -2,040 Descending FlightAware
07:28AM 32.6750 33.8790 129° Southeast 404 465 16,000 -2,040 Descending FlightAware
07:28AM 32.6350 33.9390 128° Southeast 398 458 14,800 -2,040 Descending FlightAware
07:29AM 32.5970 33.9950 129° Southeast 392 451 13,700 -2,040 Descending FlightAware
07:30AM 32.5560 34.0560 129° Southeast 384 442 12,500 -1,980 Descending FlightAware
07:30AM 32.5190 34.1100 129° Southeast 377 434 11,400 -1,620 Descending FlightAware
07:31AM 32.4810 34.1630 130° Southeast 361 415 10,700 -1,080 Descending FlightAware
07:31AM 32.4440 34.2090 134° Southeast 340 391 10,200 -420 Descending FlightAware
07:32AM 32.4040 34.2570 135° Southeast 301 346 10,200 -420 Level FlightAware
07:32AM 32.3840 34.2790 137° Southeast 293 337 9,800 -1,380 Descending FlightAware
07:33AM 32.3510 34.3180 135° Southeast 293 337 9,000 -1,320 Descending FlightAware
07:33AM 32.3300 34.3430 135° Southeast 290 334 8,600 -1,200 Descending FlightAware
07:33AM 32.3130 34.3630 135° Southeast 287 330 8,200 -600 Descending FlightAware
07:34AM 32.2870 34.3940 135° Southeast 287 330 8,100 -120 Descending FlightAware
07:34AM 32.2680 34.4160 136° Southeast 287 330 8,100  Level FlightAware
07:35AM 32.2480 34.4400 135° Southeast 287 330 8,100  Level FlightAware
07:35AM 32.2280 34.4640 135° Southeast 287 330 8,100  Level FlightAware
07:38AM 32.0438 34.8083 131° Southeast  Level FlightAware Approximate
07:39AM 32.0000 34.8667 North  Level FlightAware Approximate
07:40AM 32.0095 34.8769 North  Level Estimated
07:41AM 32.0095 34.8769 North  Level Estimated
07:42AM 32.0095 34.8769 North  Level Estimated
07:43AM 32.0095 34.8769 North  Level Estimated
07:44AM 32.0095 34.8769 North  Level Estimated
07:45AM 32.0095 34.8769 North  Level Estimated